createdAt,value
2018-10-16T00:00:16.122Z,25.10
2018-10-16T00:00:51.574Z,26.10
2018-10-16T00:01:27.208Z,24.90
2018-10-16T00:02:02.550Z,28.20
2018-10-16T00:02:38.117Z,29.50
2018-10-16T00:03:13.442Z,26.00
2018-10-16T00:03:48.695Z,23.70
2018-10-16T00:04:24.169Z,25.30
2018-10-16T00:04:59.525Z,25.10
2018-10-16T00:05:35.363Z,29.70
2018-10-16T00:06:10.685Z,28.70
2018-10-16T00:06:46.347Z,29.50
2018-10-16T00:07:21.682Z,28.00
2018-10-16T00:07:56.803Z,29.20
2018-10-16T00:08:32.116Z,32.10
2018-10-16T00:09:07.543Z,28.80
2018-10-16T00:09:42.925Z,27.10
2018-10-16T00:10:18.417Z,28.80
2018-10-16T00:10:53.968Z,29.40
2018-10-16T00:11:29.342Z,26.80
2018-10-16T00:12:04.883Z,30.50
2018-10-16T00:12:40.378Z,34.00
2018-10-16T00:13:16.016Z,30.80
2018-10-16T00:13:51.565Z,29.20
2018-10-16T00:14:27.322Z,29.30
2018-10-16T00:15:02.919Z,29.60
2018-10-16T00:15:38.328Z,29.00
2018-10-16T00:16:13.772Z,29.00
2018-10-16T00:16:49.341Z,30.30
2018-10-16T00:17:24.765Z,26.30
2018-10-16T00:18:00.421Z,30.20
2018-10-16T00:18:35.936Z,31.20
2018-10-16T00:19:11.182Z,32.50
2018-10-16T00:19:46.617Z,30.80
2018-10-16T00:20:21.863Z,28.00
2018-10-16T00:20:57.338Z,27.10
2018-10-16T00:21:32.771Z,28.30
2018-10-16T00:22:08.237Z,26.70
2018-10-16T00:22:43.459Z,24.80
2018-10-16T00:23:19.023Z,25.00
2018-10-16T00:23:54.670Z,27.30
2018-10-16T00:24:30.010Z,27.10
2018-10-16T00:25:05.763Z,25.30
2018-10-16T00:25:41.026Z,26.50
2018-10-16T00:26:16.561Z,28.50
2018-10-16T00:26:51.996Z,24.50
2018-10-16T00:27:27.136Z,22.70
2018-10-16T00:28:02.571Z,25.00
2018-10-16T00:28:37.902Z,28.10
2018-10-16T00:29:13.335Z,29.00
2018-10-16T00:29:48.584Z,26.40
2018-10-16T00:30:23.685Z,25.00
2018-10-16T00:30:58.869Z,28.90
2018-10-16T00:31:34.229Z,29.50
2018-10-16T00:32:09.689Z,29.00
2018-10-16T00:32:45.436Z,30.10
2018-10-16T00:33:20.570Z,30.60
2018-10-16T00:33:55.918Z,31.00
2018-10-16T00:34:31.332Z,29.70
2018-10-16T00:35:06.580Z,27.10
2018-10-16T00:35:42.006Z,24.70
2018-10-16T00:36:17.550Z,28.20
2018-10-16T00:36:52.805Z,31.60
2018-10-16T00:37:28.231Z,32.20
2018-10-16T00:38:03.479Z,28.80
2018-10-16T00:38:38.684Z,27.30
2018-10-16T00:39:14.153Z,25.40
2018-10-16T00:39:49.613Z,24.00
2018-10-16T00:40:24.872Z,27.50
2018-10-16T00:41:00.311Z,30.40
2018-10-16T00:41:35.820Z,29.00
2018-10-16T00:42:11.069Z,27.50
2018-10-16T00:42:46.772Z,31.40
2018-10-16T00:43:21.969Z,30.80
2018-10-16T00:43:57.613Z,29.20
2018-10-16T00:44:33.123Z,30.30
2018-10-16T00:45:08.345Z,26.80
2018-10-16T00:45:43.934Z,25.70
2018-10-16T00:46:19.582Z,26.70
2018-10-16T00:46:54.852Z,26.30
2018-10-16T00:47:30.266Z,27.10
2018-10-16T00:48:05.435Z,28.10
2018-10-16T00:48:40.641Z,26.40
2018-10-16T00:49:16.098Z,24.20
2018-10-16T00:49:51.323Z,27.70
2018-10-16T00:50:26.756Z,29.30
2018-10-16T00:51:02.238Z,31.60
2018-10-16T00:51:37.452Z,27.20
2018-10-16T00:52:13.013Z,29.00
2018-10-16T00:52:48.361Z,27.70
2018-10-16T00:53:23.624Z,25.30
2018-10-16T00:53:59.096Z,26.70
2018-10-16T00:54:34.527Z,28.10
2018-10-16T00:55:09.864Z,30.40
2018-10-16T00:55:45.299Z,30.00
2018-10-16T00:56:20.576Z,26.10
2018-10-16T00:56:55.908Z,26.50
2018-10-16T00:57:31.169Z,25.30
2018-10-16T00:58:06.385Z,27.30
2018-10-16T00:58:41.806Z,27.60
2018-10-16T00:59:17.454Z,27.90
2018-10-16T00:59:52.888Z,27.30
2018-10-16T01:00:28.230Z,29.70
2018-10-16T01:01:03.586Z,29.30
2018-10-16T01:01:38.988Z,26.30
2018-10-16T01:02:14.616Z,28.70
2018-10-16T01:02:49.952Z,29.80
2018-10-16T01:03:25.408Z,29.60
2018-10-16T01:04:00.454Z,32.70
2018-10-16T01:04:36.258Z,32.50
2018-10-16T01:05:11.425Z,29.40
2018-10-16T01:05:46.702Z,28.10
2018-10-16T01:06:22.127Z,29.10
2018-10-16T01:06:57.559Z,26.20
2018-10-16T01:07:32.772Z,27.30
2018-10-16T01:08:08.145Z,29.50
2018-10-16T01:08:43.674Z,29.40
2018-10-16T01:09:18.913Z,27.90
2018-10-16T01:09:54.310Z,30.80
2018-10-16T01:10:29.514Z,29.90
2018-10-16T01:11:04.765Z,27.90
2018-10-16T01:11:40.415Z,29.20
2018-10-16T01:12:15.975Z,26.90
2018-10-16T01:12:51.688Z,27.70
2018-10-16T01:13:27.157Z,30.40
2018-10-16T01:14:02.797Z,30.60
2018-10-16T01:14:38.227Z,27.00
2018-10-16T01:15:13.693Z,25.90
2018-10-16T01:15:48.929Z,29.10
2018-10-16T01:16:24.438Z,27.70
2018-10-16T01:17:00.044Z,27.00
2018-10-16T01:17:35.550Z,29.20
2018-10-16T01:18:10.784Z,28.90
2018-10-16T01:18:46.051Z,29.30
2018-10-16T01:19:21.110Z,27.30
2018-10-16T01:19:56.469Z,29.70
2018-10-16T01:20:32.355Z,30.90
2018-10-16T01:21:07.916Z,31.20
2018-10-16T01:21:43.175Z,33.60
2018-10-16T01:22:18.436Z,31.10
2018-10-16T01:22:53.796Z,28.10
2018-10-16T01:23:29.371Z,28.30
2018-10-16T01:24:05.060Z,27.20
2018-10-16T01:24:40.271Z,26.50
2018-10-16T01:25:15.508Z,28.10
2018-10-16T01:25:51.229Z,26.90
2018-10-16T01:26:26.562Z,26.20
2018-10-16T01:27:01.985Z,29.40
2018-10-16T01:27:37.357Z,28.90
2018-10-16T01:28:12.608Z,26.30
2018-10-16T01:28:48.020Z,25.40
2018-10-16T01:29:23.432Z,26.40
2018-10-16T01:29:58.976Z,27.70
2018-10-16T01:30:34.431Z,28.80
2018-10-16T01:31:11.777Z,28.10
2018-10-16T01:31:46.978Z,26.70
2018-10-16T01:32:22.254Z,28.40
2018-10-16T01:32:57.277Z,27.30
2018-10-16T01:33:32.821Z,28.20
2018-10-16T01:34:07.948Z,29.70
2018-10-16T01:34:43.305Z,30.50
2018-10-16T01:35:18.638Z,29.20
2018-10-16T01:35:53.945Z,29.00
2018-10-16T01:36:29.487Z,29.50
2018-10-16T01:37:04.627Z,30.30
2018-10-16T01:37:39.984Z,29.20
2018-10-16T01:38:15.511Z,28.80
2018-10-16T01:38:50.865Z,27.30
2018-10-16T01:39:26.011Z,30.40
2018-10-16T01:40:01.472Z,33.70
2018-10-16T01:40:36.983Z,30.70
2018-10-16T01:41:12.540Z,30.70
2018-10-16T01:41:47.954Z,26.70
2018-10-16T01:42:23.446Z,26.20
2018-10-16T01:42:58.672Z,27.60
2018-10-16T01:43:33.919Z,28.00
2018-10-16T01:44:09.252Z,26.60
2018-10-16T01:44:44.568Z,26.00
2018-10-16T01:45:19.968Z,28.40
2018-10-16T01:45:55.292Z,30.40
2018-10-16T01:46:30.571Z,32.50
2018-10-16T01:47:06.053Z,27.90
2018-10-16T01:47:41.725Z,28.90
2018-10-16T01:48:18.711Z,27.80
2018-10-16T01:48:53.981Z,28.80
2018-10-16T01:49:29.336Z,27.00
2018-10-16T01:50:04.688Z,25.90
2018-10-16T01:50:40.155Z,30.60
2018-10-16T01:51:15.594Z,30.60
2018-10-16T01:51:51.111Z,27.20
2018-10-16T01:52:26.359Z,29.10
2018-10-16T01:53:01.673Z,27.80
2018-10-16T01:53:37.032Z,28.40
2018-10-16T01:54:12.425Z,28.20
2018-10-16T01:54:47.846Z,27.10
2018-10-16T01:55:23.119Z,26.70
2018-10-16T01:55:58.349Z,28.20
2018-10-16T01:56:33.782Z,28.50
2018-10-16T01:57:09.139Z,29.10
2018-10-16T01:57:44.431Z,30.50
2018-10-16T01:58:19.662Z,27.40
2018-10-16T01:58:55.081Z,27.20
2018-10-16T01:59:30.243Z,31.80
2018-10-16T02:00:06.168Z,31.00
2018-10-16T02:00:41.485Z,28.60
2018-10-16T02:01:16.859Z,29.40
2018-10-16T02:01:52.491Z,29.60
2018-10-16T02:02:27.659Z,24.80
2018-10-16T02:03:02.794Z,30.00
2018-10-16T02:03:38.107Z,32.20
2018-10-16T02:04:13.783Z,25.70
2018-10-16T02:04:49.207Z,25.50
2018-10-16T02:05:24.692Z,31.10
2018-10-16T02:05:59.986Z,30.20
2018-10-16T02:06:35.569Z,29.60
2018-10-16T02:07:11.022Z,29.00
2018-10-16T02:07:46.392Z,29.30
2018-10-16T02:08:21.757Z,26.20
2018-10-16T02:08:57.361Z,27.50
2018-10-16T02:09:32.791Z,25.10
2018-10-16T02:10:08.307Z,23.20
2018-10-16T02:10:43.953Z,23.80
2018-10-16T02:11:19.199Z,24.10
2018-10-16T02:11:54.575Z,25.40
2018-10-16T02:12:30.343Z,25.90
2018-10-16T02:13:05.879Z,25.30
2018-10-16T02:13:41.323Z,25.90
2018-10-16T02:14:16.477Z,29.30
2018-10-16T02:14:51.893Z,25.20
2018-10-16T02:15:27.242Z,25.70
2018-10-16T02:16:02.573Z,27.00
2018-10-16T02:16:38.026Z,26.80
2018-10-16T02:17:13.346Z,27.00
2018-10-16T02:17:49.015Z,26.80
2018-10-16T02:18:24.532Z,29.00
2018-10-16T02:18:59.764Z,29.30
2018-10-16T02:19:34.963Z,25.30
2018-10-16T02:20:10.634Z,26.80
2018-10-16T02:20:46.040Z,29.20
2018-10-16T02:21:21.196Z,28.20
2018-10-16T02:21:56.706Z,26.70
2018-10-16T02:22:32.021Z,25.00
2018-10-16T02:23:07.449Z,25.10
2018-10-16T02:23:42.687Z,24.50
2018-10-16T02:24:18.107Z,25.30
2018-10-16T02:24:53.568Z,27.50
2018-10-16T02:25:28.952Z,27.30
2018-10-16T02:26:04.180Z,25.70
2018-10-16T02:26:39.401Z,25.60
2018-10-16T02:27:14.832Z,24.60
2018-10-16T02:27:50.380Z,30.10
2018-10-16T02:28:25.855Z,32.10
2018-10-16T02:29:01.394Z,24.50
2018-10-16T02:29:36.768Z,24.90
2018-10-16T02:30:12.494Z,28.40
2018-10-16T02:30:47.651Z,27.80
2018-10-16T02:31:23.082Z,34.00
2018-10-16T02:31:58.441Z,35.80
2018-10-16T02:32:33.762Z,26.00
2018-10-16T02:33:09.312Z,26.00
2018-10-16T02:33:44.617Z,23.60
2018-10-16T02:34:20.255Z,23.20
2018-10-16T02:34:55.966Z,23.80
2018-10-16T02:35:31.520Z,24.50
2018-10-16T02:36:06.967Z,22.60
2018-10-16T02:36:42.361Z,25.80
2018-10-16T02:37:17.709Z,28.00
2018-10-16T02:37:53.049Z,26.40
2018-10-16T02:38:28.489Z,22.70
2018-10-16T02:39:03.932Z,24.00
2018-10-16T02:39:39.567Z,23.40
2018-10-16T02:40:15.112Z,23.40
2018-10-16T02:40:50.528Z,24.10
2018-10-16T02:41:25.625Z,24.80
2018-10-16T02:42:00.807Z,26.70
2018-10-16T02:42:36.197Z,27.20
2018-10-16T02:43:11.593Z,25.50
2018-10-16T02:43:47.056Z,24.10
2018-10-16T02:44:22.498Z,27.90
2018-10-16T02:44:57.960Z,29.90
2018-10-16T02:45:33.310Z,25.60
2018-10-16T02:46:08.628Z,24.30
2018-10-16T02:46:43.891Z,23.70
2018-10-16T02:47:19.157Z,24.00
2018-10-16T02:47:54.293Z,27.30
2018-10-16T02:48:29.652Z,24.50
2018-10-16T02:49:05.158Z,24.30
2018-10-16T02:49:40.586Z,26.90
2018-10-16T02:50:15.812Z,26.80
2018-10-16T02:50:51.178Z,25.10
2018-10-16T02:51:26.848Z,24.70
2018-10-16T02:52:02.188Z,24.70
2018-10-16T02:52:37.615Z,23.60
2018-10-16T02:53:12.880Z,21.90
2018-10-16T02:53:48.516Z,23.20
2018-10-16T02:54:23.858Z,29.30
2018-10-16T02:54:59.066Z,26.70
2018-10-16T02:55:34.212Z,24.80
2018-10-16T02:56:09.740Z,27.70
2018-10-16T02:56:45.213Z,26.30
2018-10-16T02:57:20.351Z,24.50
2018-10-16T02:57:55.484Z,26.60
2018-10-16T02:58:30.801Z,27.10
2018-10-16T02:59:06.134Z,24.70
2018-10-16T02:59:41.649Z,24.80
2018-10-16T03:00:17.020Z,26.00
2018-10-16T03:00:52.324Z,25.00
2018-10-16T03:01:27.866Z,27.60
2018-10-16T03:02:03.091Z,28.60
2018-10-16T03:02:38.247Z,27.60
2018-10-16T03:03:13.844Z,24.10
2018-10-16T03:03:49.264Z,25.10
2018-10-16T03:04:24.700Z,26.60
2018-10-16T03:05:00.344Z,22.90
2018-10-16T03:05:35.844Z,24.70
2018-10-16T03:06:11.278Z,26.60
2018-10-16T03:06:47.023Z,30.10
2018-10-16T03:07:22.364Z,30.20
2018-10-16T03:07:57.782Z,25.20
2018-10-16T03:08:33.455Z,26.60
2018-10-16T03:09:08.874Z,25.30
2018-10-16T03:09:44.328Z,26.00
2018-10-16T03:10:20.241Z,29.30
2018-10-16T03:10:55.586Z,30.70
2018-10-16T03:11:31.036Z,29.70
2018-10-16T03:12:06.259Z,28.60
2018-10-16T03:12:41.685Z,28.80
2018-10-16T03:13:16.931Z,27.90
2018-10-16T03:13:52.849Z,27.10
2018-10-16T03:14:28.227Z,30.30
2018-10-16T03:15:03.674Z,29.40
2018-10-16T03:15:39.104Z,28.00
2018-10-16T03:16:14.442Z,26.70
2018-10-16T03:16:49.730Z,23.90
2018-10-16T03:17:26.047Z,27.50
2018-10-16T03:18:01.696Z,26.80
2018-10-16T03:18:37.037Z,26.90
2018-10-16T03:19:12.263Z,26.80
2018-10-16T03:19:47.456Z,27.80
2018-10-16T03:20:22.746Z,32.10
2018-10-16T03:20:57.947Z,30.30
2018-10-16T03:21:33.307Z,23.70
2018-10-16T03:22:08.448Z,26.80
2018-10-16T03:22:43.780Z,26.00
2018-10-16T03:23:19.304Z,25.40
2018-10-16T03:23:54.746Z,26.30
2018-10-16T03:24:30.067Z,25.00
2018-10-16T03:25:05.486Z,26.40
2018-10-16T03:25:40.620Z,25.40
2018-10-16T03:26:16.003Z,25.50
2018-10-16T03:26:51.400Z,30.60
2018-10-16T03:27:26.741Z,28.90
2018-10-16T03:28:01.991Z,26.80
2018-10-16T03:28:37.443Z,27.10
2018-10-16T03:29:13.173Z,27.80
2018-10-16T03:29:48.535Z,29.50
2018-10-16T03:30:23.839Z,27.90
2018-10-16T03:30:59.314Z,26.10
2018-10-16T03:31:34.597Z,26.00
2018-10-16T03:32:10.073Z,28.00
2018-10-16T03:32:45.525Z,27.50
2018-10-16T03:33:21.090Z,26.70
2018-10-16T03:33:56.502Z,27.70
2018-10-16T03:34:32.256Z,29.50
2018-10-16T03:35:07.399Z,30.20
2018-10-16T03:35:42.997Z,29.40
2018-10-16T03:36:18.244Z,29.10
2018-10-16T03:36:53.577Z,29.40
2018-10-16T03:37:28.791Z,27.70
2018-10-16T03:38:04.032Z,28.80
2018-10-16T03:38:39.274Z,28.90
2018-10-16T03:39:14.633Z,27.40
2018-10-16T03:39:49.837Z,27.10
2018-10-16T03:40:25.391Z,26.00
2018-10-16T03:41:00.835Z,26.60
2018-10-16T03:41:36.507Z,29.80
2018-10-16T03:42:11.516Z,28.40
2018-10-16T03:42:46.857Z,31.60
2018-10-16T03:43:22.286Z,35.80
2018-10-16T03:43:57.767Z,28.40
2018-10-16T03:44:33.078Z,27.50
2018-10-16T03:45:08.416Z,30.90
2018-10-16T03:45:43.622Z,28.30
2018-10-16T03:46:18.983Z,28.50
2018-10-16T03:46:54.095Z,29.00
2018-10-16T03:47:29.456Z,30.10
2018-10-16T03:48:04.879Z,32.30
2018-10-16T03:48:40.420Z,29.50
2018-10-16T03:49:15.924Z,31.60
2018-10-16T03:49:51.580Z,29.20
2018-10-16T03:50:27.142Z,31.90
2018-10-16T03:51:02.692Z,37.50
2018-10-16T03:51:38.050Z,32.20
2018-10-16T03:52:13.213Z,26.30
2018-10-16T03:52:48.507Z,26.80
2018-10-16T03:53:23.801Z,31.00
2018-10-16T03:53:59.334Z,32.80
2018-10-16T03:54:34.667Z,29.00
2018-10-16T03:55:10.108Z,29.80
2018-10-16T03:55:45.535Z,30.40
2018-10-16T03:56:20.805Z,31.80
2018-10-16T03:56:56.143Z,32.30
2018-10-16T03:57:31.377Z,27.70
2018-10-16T03:58:06.843Z,27.60
2018-10-16T03:58:42.042Z,26.00
2018-10-16T03:59:17.476Z,26.10
2018-10-16T03:59:52.897Z,27.30
2018-10-16T04:00:28.439Z,28.70
2018-10-16T04:01:03.667Z,26.80
2018-10-16T04:01:39.219Z,28.10
2018-10-16T04:02:14.464Z,27.20
2018-10-16T04:02:50.131Z,30.30
2018-10-16T04:03:25.285Z,32.40
2018-10-16T04:04:00.576Z,27.80
2018-10-16T04:04:35.933Z,29.60
2018-10-16T04:05:11.348Z,29.20
2018-10-16T04:05:46.684Z,27.90
2018-10-16T04:06:22.214Z,29.80
2018-10-16T04:06:57.442Z,28.90
2018-10-16T04:07:32.803Z,28.00
2018-10-16T04:08:08.243Z,29.10
2018-10-16T04:08:43.617Z,28.10
2018-10-16T04:09:18.977Z,26.70
2018-10-16T04:09:54.406Z,28.20
2018-10-16T04:10:29.658Z,30.10
2018-10-16T04:11:04.876Z,27.90
2018-10-16T04:11:40.234Z,31.00
2018-10-16T04:12:15.680Z,31.50
2018-10-16T04:12:51.189Z,33.80
2018-10-16T04:13:26.730Z,29.00
2018-10-16T04:14:02.030Z,29.10
2018-10-16T04:14:37.495Z,33.30
2018-10-16T04:15:12.514Z,32.90
2018-10-16T04:15:47.951Z,27.30
2018-10-16T04:16:23.156Z,26.40
2018-10-16T04:16:58.820Z,28.60
2018-10-16T04:17:34.392Z,30.70
2018-10-16T04:18:09.528Z,27.40
2018-10-16T04:18:44.736Z,26.40
2018-10-16T04:19:20.154Z,25.50
2018-10-16T04:19:55.677Z,28.90
2018-10-16T04:20:31.288Z,32.50
2018-10-16T04:21:06.616Z,30.10
2018-10-16T04:21:42.153Z,32.70
2018-10-16T04:22:17.681Z,31.40
2018-10-16T04:22:53.010Z,29.70
2018-10-16T04:23:28.535Z,29.90
2018-10-16T04:24:03.666Z,27.90
2018-10-16T04:24:39.129Z,28.50
2018-10-16T04:25:14.742Z,27.20
2018-10-16T04:25:50.471Z,27.50
2018-10-16T04:26:25.782Z,27.60
2018-10-16T04:27:01.593Z,28.00
2018-10-16T04:27:36.869Z,28.50
2018-10-16T04:28:12.262Z,29.80
2018-10-16T04:28:47.901Z,31.10
2018-10-16T04:29:22.935Z,28.80
2018-10-16T04:29:58.183Z,28.30
2018-10-16T04:30:33.442Z,30.20
2018-10-16T04:31:09.051Z,28.50
2018-10-16T04:31:44.370Z,27.60
2018-10-16T04:32:19.876Z,25.40
2018-10-16T04:32:55.359Z,25.90
2018-10-16T04:33:30.789Z,29.00
2018-10-16T04:34:06.119Z,27.70
2018-10-16T04:34:41.350Z,26.90
2018-10-16T04:35:16.707Z,29.40
2018-10-16T04:35:52.308Z,26.60
2018-10-16T04:36:27.724Z,28.30
2018-10-16T04:37:03.435Z,30.30
2018-10-16T04:37:38.778Z,28.80
2018-10-16T04:38:14.143Z,28.10
2018-10-16T04:38:49.481Z,26.50
2018-10-16T04:39:24.836Z,26.60
2018-10-16T04:40:00.370Z,30.80
2018-10-16T04:40:35.684Z,36.00
2018-10-16T04:41:11.200Z,29.00
2018-10-16T04:41:46.612Z,25.20
2018-10-16T04:42:21.882Z,30.90
2018-10-16T04:42:57.362Z,30.40
2018-10-16T04:43:32.812Z,31.80
2018-10-16T04:44:08.238Z,29.40
2018-10-16T04:44:43.567Z,28.50
2018-10-16T04:45:18.725Z,28.40
2018-10-16T04:45:54.271Z,30.00
2018-10-16T04:46:29.405Z,27.90
2018-10-16T04:47:04.859Z,29.70
2018-10-16T04:47:40.184Z,30.30
2018-10-16T04:48:15.622Z,34.20
2018-10-16T04:48:51.247Z,33.20
2018-10-16T04:49:26.678Z,31.40
2018-10-16T04:50:01.867Z,28.90
2018-10-16T04:50:37.315Z,28.50
2018-10-16T04:51:12.515Z,30.70
2018-10-16T04:51:48.140Z,29.90
2018-10-16T04:52:23.172Z,28.70
2018-10-16T04:52:58.798Z,31.20
2018-10-16T04:53:34.359Z,31.10
2018-10-16T04:54:09.982Z,38.20
2018-10-16T04:54:45.326Z,35.10
2018-10-16T04:55:21.068Z,29.30
2018-10-16T04:55:56.509Z,28.20
2018-10-16T04:56:31.799Z,29.80
2018-10-16T04:57:07.202Z,31.00
2018-10-16T04:57:42.606Z,30.60
2018-10-16T04:58:17.861Z,30.00
2018-10-16T04:58:53.392Z,30.20
2018-10-16T04:59:28.949Z,27.80
2018-10-16T05:00:04.421Z,28.30
2018-10-16T05:00:39.962Z,28.30
2018-10-16T05:01:15.313Z,26.40
2018-10-16T05:01:50.961Z,27.50
2018-10-16T05:02:26.403Z,32.20
2018-10-16T05:03:01.755Z,32.60
2018-10-16T05:03:37.631Z,29.30
2018-10-16T05:04:13.049Z,28.80
2018-10-16T05:04:48.452Z,32.10
2018-10-16T05:05:23.800Z,32.70
2018-10-16T05:05:58.937Z,33.30
2018-10-16T05:06:34.677Z,29.90
2018-10-16T05:07:09.837Z,28.90
2018-10-16T05:07:45.077Z,28.60
2018-10-16T05:08:20.403Z,27.70
2018-10-16T05:08:55.963Z,30.60
2018-10-16T05:09:31.297Z,32.00
2018-10-16T05:10:06.642Z,32.20
2018-10-16T05:10:42.382Z,28.70
2018-10-16T05:11:17.727Z,31.20
2018-10-16T05:11:53.055Z,31.70
2018-10-16T05:12:28.394Z,31.70
2018-10-16T05:13:03.628Z,31.70
2018-10-16T05:13:39.130Z,30.40
2018-10-16T05:14:14.478Z,32.80
2018-10-16T05:14:49.951Z,32.10
2018-10-16T05:15:25.287Z,31.50
2018-10-16T05:16:00.592Z,31.50
2018-10-16T05:16:36.106Z,32.90
2018-10-16T05:17:11.808Z,33.40
2018-10-16T05:17:47.039Z,37.30
2018-10-16T05:18:22.362Z,34.30
2018-10-16T05:18:57.526Z,31.90
2018-10-16T05:19:32.742Z,33.50
2018-10-16T05:20:08.092Z,32.40
2018-10-16T05:20:43.713Z,31.40
2018-10-16T05:21:18.779Z,34.30
2018-10-16T05:21:54.219Z,35.90
2018-10-16T05:22:29.640Z,38.10
2018-10-16T05:23:05.107Z,36.60
2018-10-16T05:23:40.608Z,32.20
2018-10-16T05:24:16.072Z,33.50
2018-10-16T05:24:51.505Z,29.80
2018-10-16T05:25:26.914Z,30.40
2018-10-16T05:26:02.437Z,31.40
2018-10-16T05:26:37.803Z,32.10
2018-10-16T05:27:13.074Z,33.90
2018-10-16T05:27:48.293Z,29.90
2018-10-16T05:28:23.698Z,29.70
2018-10-16T05:28:58.958Z,34.40
2018-10-16T05:29:34.205Z,37.50
2018-10-16T05:30:09.225Z,34.30
2018-10-16T05:30:44.506Z,36.50
2018-10-16T05:31:19.852Z,38.70
2018-10-16T05:31:54.959Z,38.60
2018-10-16T05:32:30.475Z,40.90
2018-10-16T05:33:05.958Z,38.90
2018-10-16T05:33:41.161Z,39.20
2018-10-16T05:34:16.684Z,33.40
2018-10-16T05:34:51.913Z,34.10
2018-10-16T05:35:27.421Z,30.40
2018-10-16T05:36:03.143Z,32.30
2018-10-16T05:36:38.698Z,38.50
2018-10-16T05:37:14.186Z,33.90
2018-10-16T05:37:50.005Z,30.40
2018-10-16T05:38:25.257Z,35.90
2018-10-16T05:39:00.595Z,36.10
2018-10-16T05:39:35.952Z,33.20
2018-10-16T05:40:11.416Z,36.10
2018-10-16T05:40:47.480Z,38.30
2018-10-16T05:41:23.086Z,37.20
2018-10-16T05:41:58.526Z,38.10
2018-10-16T05:42:33.660Z,35.40
2018-10-16T05:43:08.801Z,32.00
2018-10-16T05:43:44.118Z,34.00
2018-10-16T05:44:19.553Z,37.40
2018-10-16T05:44:54.990Z,31.90
2018-10-16T05:45:30.002Z,36.40
2018-10-16T05:46:05.453Z,34.70
2018-10-16T05:46:40.718Z,33.50
2018-10-16T05:47:16.152Z,29.70
2018-10-16T05:47:51.595Z,28.90
2018-10-16T05:48:26.843Z,35.60
2018-10-16T05:49:02.065Z,36.80
2018-10-16T05:49:37.510Z,34.50
2018-10-16T05:50:13.138Z,33.20
2018-10-16T05:50:48.677Z,38.90
2018-10-16T05:51:24.053Z,34.00
2018-10-16T05:52:01.285Z,31.90
2018-10-16T05:52:36.903Z,33.20
2018-10-16T05:53:12.231Z,34.00
2018-10-16T05:53:47.996Z,34.50
2018-10-16T05:54:23.523Z,36.70
2018-10-16T05:54:58.654Z,32.60
2018-10-16T05:55:33.866Z,30.30
2018-10-16T05:56:09.098Z,32.00
2018-10-16T05:56:44.483Z,35.60
2018-10-16T05:57:19.818Z,35.90
2018-10-16T05:57:55.246Z,36.50
2018-10-16T05:58:30.649Z,34.50
2018-10-16T05:59:06.322Z,34.60
2018-10-16T05:59:41.663Z,33.50
2018-10-16T06:00:16.821Z,32.70
2018-10-16T06:00:54.570Z,36.90
2018-10-16T06:01:29.994Z,32.50
2018-10-16T06:02:05.534Z,38.50
2018-10-16T06:02:40.869Z,46.70
2018-10-16T06:03:16.098Z,38.50
2018-10-16T06:03:51.877Z,37.20
2018-10-16T06:04:27.568Z,39.20
2018-10-16T06:05:03.052Z,38.00
2018-10-16T06:05:38.581Z,49.10
2018-10-16T06:06:13.852Z,55.30
2018-10-16T06:06:49.330Z,51.10
2018-10-16T06:07:24.840Z,46.00
2018-10-16T06:08:00.100Z,49.30
2018-10-16T06:08:35.291Z,47.20
2018-10-16T06:09:10.764Z,43.30
2018-10-16T06:09:47.117Z,42.60
2018-10-16T06:10:22.538Z,41.80
2018-10-16T06:10:57.818Z,48.00
2018-10-16T06:11:33.100Z,48.60
2018-10-16T06:12:08.606Z,47.30
2018-10-16T06:12:43.959Z,46.30
2018-10-16T06:13:19.316Z,34.50
2018-10-16T06:13:54.716Z,39.30
2018-10-16T06:14:30.055Z,32.00
2018-10-16T06:15:05.376Z,40.40
2018-10-16T06:15:40.719Z,39.80
2018-10-16T06:16:15.972Z,39.10
2018-10-16T06:16:51.122Z,39.20
2018-10-16T06:17:26.489Z,38.70
2018-10-16T06:18:01.835Z,40.20
2018-10-16T06:18:37.237Z,43.50
2018-10-16T06:19:12.882Z,42.20
2018-10-16T06:19:48.531Z,44.20
2018-10-16T06:20:23.935Z,35.10
2018-10-16T06:20:59.317Z,40.60
2018-10-16T06:21:34.831Z,47.30
2018-10-16T06:22:10.290Z,48.60
2018-10-16T06:22:45.832Z,43.80
2018-10-16T06:23:21.052Z,42.80
2018-10-16T06:23:56.263Z,41.50
2018-10-16T06:24:31.835Z,47.10
2018-10-16T06:25:07.101Z,53.30
2018-10-16T06:25:42.825Z,43.00
2018-10-16T06:26:17.968Z,35.40
2018-10-16T06:26:53.592Z,38.60
2018-10-16T06:27:28.835Z,37.90
2018-10-16T06:28:04.370Z,35.80
2018-10-16T06:28:39.795Z,38.80
2018-10-16T06:29:15.238Z,45.40
2018-10-16T06:29:50.476Z,37.90
2018-10-16T06:30:25.940Z,38.80
2018-10-16T06:31:01.129Z,39.20
2018-10-16T06:31:36.635Z,33.70
2018-10-16T06:32:12.087Z,32.60
2018-10-16T06:32:47.288Z,37.50
2018-10-16T06:33:22.686Z,45.10
2018-10-16T06:33:58.371Z,44.30
2018-10-16T06:34:33.590Z,37.60
2018-10-16T06:35:08.964Z,37.40
2018-10-16T06:35:44.400Z,39.70
2018-10-16T06:36:19.754Z,38.60
2018-10-16T06:36:55.403Z,37.40
2018-10-16T06:37:30.959Z,36.20
2018-10-16T06:38:06.599Z,42.30
2018-10-16T06:38:41.975Z,41.10
2018-10-16T06:39:17.393Z,43.20
2018-10-16T06:39:52.681Z,42.40
2018-10-16T06:40:28.147Z,40.50
2018-10-16T06:41:03.695Z,38.30
2018-10-16T06:41:39.244Z,42.90
2018-10-16T06:42:14.701Z,48.50
2018-10-16T06:42:49.957Z,43.20
2018-10-16T06:43:25.392Z,41.60
2018-10-16T06:44:00.942Z,40.80
2018-10-16T06:44:36.416Z,40.30
2018-10-16T06:45:11.675Z,36.60
2018-10-16T06:45:47.024Z,33.40
2018-10-16T06:46:22.429Z,37.90
2018-10-16T06:46:57.637Z,39.40
2018-10-16T06:47:33.001Z,41.80
2018-10-16T06:48:08.455Z,42.00
2018-10-16T06:48:44.117Z,49.00
2018-10-16T06:49:19.633Z,43.80
2018-10-16T06:49:54.957Z,45.10
2018-10-16T06:50:30.072Z,51.50
2018-10-16T06:51:05.097Z,58.60
2018-10-16T06:51:40.346Z,44.80
2018-10-16T06:52:15.889Z,52.20
2018-10-16T06:52:51.142Z,38.40
2018-10-16T06:53:26.615Z,46.30
2018-10-16T06:54:02.109Z,49.70
2018-10-16T06:54:37.322Z,48.90
2018-10-16T06:55:12.567Z,47.80
2018-10-16T06:55:47.753Z,47.40
2018-10-16T06:56:23.003Z,41.00
2018-10-16T06:56:58.364Z,44.90
2018-10-16T06:57:33.617Z,46.30
2018-10-16T06:58:09.190Z,43.10
2018-10-16T06:58:44.542Z,39.50
2018-10-16T06:59:19.771Z,40.10
2018-10-16T06:59:55.278Z,37.20
2018-10-16T07:00:31.000Z,36.70
2018-10-16T07:01:06.341Z,37.80
2018-10-16T07:01:41.505Z,36.00
2018-10-16T07:02:16.997Z,32.80
2018-10-16T07:02:52.251Z,37.40
2018-10-16T07:03:27.861Z,39.60
2018-10-16T07:04:03.508Z,36.20
2018-10-16T07:04:39.049Z,35.60
2018-10-16T07:05:14.363Z,39.80
2018-10-16T07:05:50.068Z,53.00
2018-10-16T07:06:25.576Z,51.60
2018-10-16T07:07:01.227Z,40.10
2018-10-16T07:07:36.396Z,39.10
2018-10-16T07:08:11.980Z,37.20
2018-10-16T07:08:47.620Z,37.50
2018-10-16T07:09:22.803Z,41.80
2018-10-16T07:09:58.361Z,46.60
2018-10-16T07:10:33.820Z,41.40
2018-10-16T07:11:09.575Z,40.10
2018-10-16T07:11:44.904Z,38.90
2018-10-16T07:12:20.547Z,39.80
2018-10-16T07:12:56.230Z,47.20
2018-10-16T07:13:31.680Z,45.50
2018-10-16T07:14:06.998Z,50.50
2018-10-16T07:14:42.167Z,43.90
2018-10-16T07:15:17.684Z,43.50
2018-10-16T07:15:53.048Z,42.50
2018-10-16T07:16:28.574Z,39.40
2018-10-16T07:17:03.925Z,45.90
2018-10-16T07:17:39.452Z,45.40
2018-10-16T07:18:14.753Z,44.60
2018-10-16T07:18:50.327Z,46.90
2018-10-16T07:19:26.086Z,49.50
2018-10-16T07:20:01.753Z,47.10
2018-10-16T07:20:37.368Z,45.80
2018-10-16T07:21:12.939Z,45.20
2018-10-16T07:21:48.031Z,43.00
2018-10-16T07:22:23.588Z,43.50
2018-10-16T07:22:59.089Z,46.30
2018-10-16T07:23:34.981Z,41.70
2018-10-16T07:24:10.306Z,35.50
2018-10-16T07:24:45.544Z,42.00
2018-10-16T07:25:20.843Z,46.80
2018-10-16T07:25:56.180Z,43.90
2018-10-16T07:26:31.446Z,43.00
2018-10-16T07:27:06.541Z,39.20
2018-10-16T07:27:41.967Z,37.00
2018-10-16T07:28:17.191Z,39.90
2018-10-16T07:28:52.733Z,39.10
2018-10-16T07:29:28.387Z,40.60
2018-10-16T07:30:03.886Z,50.10
2018-10-16T07:30:39.194Z,51.00
2018-10-16T07:31:14.486Z,42.60
2018-10-16T07:31:49.724Z,41.40
2018-10-16T07:32:25.115Z,41.50
2018-10-16T07:33:00.693Z,40.40
2018-10-16T07:33:35.821Z,40.60
2018-10-16T07:34:11.390Z,37.30
2018-10-16T07:34:46.818Z,38.70
2018-10-16T07:35:22.163Z,37.10
2018-10-16T07:35:57.633Z,38.60